createdAt,value
2023-03-04T00:01:16.431Z,8.87
2023-03-04T00:03:42.981Z,9.40
2023-03-04T00:06:09.647Z,7.90
2023-03-04T00:08:36.265Z,6.90
2023-03-04T00:11:02.787Z,7.60
2023-03-04T00:13:29.344Z,6.60
2023-03-04T00:15:56.022Z,7.23
2023-03-04T00:18:22.692Z,6.57
2023-03-04T00:20:50.680Z,7.97
2023-03-04T00:23:17.553Z,7.50
2023-03-04T00:25:44.122Z,7.70
2023-03-04T00:28:10.929Z,8.73
2023-03-04T00:30:37.482Z,7.80
2023-03-04T00:33:04.180Z,8.00
2023-03-04T00:35:30.745Z,7.63
2023-03-04T00:37:57.406Z,7.40
2023-03-04T00:40:24.000Z,8.17
2023-03-04T00:42:50.717Z,7.70
2023-03-04T00:45:17.289Z,8.10
2023-03-04T00:47:45.122Z,7.57
2023-03-04T00:50:12.140Z,6.87
2023-03-04T00:52:38.691Z,6.70
2023-03-04T00:55:05.959Z,7.47
2023-03-04T00:57:32.481Z,7.60
2023-03-04T00:59:58.991Z,7.60
2023-03-04T01:02:25.796Z,7.10
2023-03-04T01:04:52.622Z,7.63
2023-03-04T01:07:19.245Z,6.50
2023-03-04T01:09:45.771Z,6.27
2023-03-04T01:12:12.316Z,6.03
2023-03-04T01:14:38.867Z,5.80
2023-03-04T01:17:05.402Z,5.30
2023-03-04T01:19:31.994Z,5.50
2023-03-04T01:21:58.555Z,5.27
2023-03-04T01:24:25.056Z,5.20
2023-03-04T01:26:51.579Z,5.67
2023-03-04T01:29:18.278Z,4.93
2023-03-04T01:31:44.854Z,4.40
2023-03-04T01:34:11.459Z,4.60
2023-03-04T01:36:38.043Z,4.20
2023-03-04T01:39:05.110Z,3.50
2023-03-04T01:41:31.931Z,3.90
2023-03-04T01:44:03.401Z,3.97
2023-03-04T01:46:31.161Z,3.70
2023-03-04T01:48:57.965Z,3.53
2023-03-04T01:51:24.621Z,3.93
2023-03-04T01:53:53.475Z,3.97
2023-03-04T01:56:30.710Z,3.77
2023-03-04T01:59:17.477Z,3.73
2023-03-04T02:01:46.829Z,3.33
2023-03-04T02:04:14.438Z,3.30
2023-03-04T02:06:41.855Z,4.43
2023-03-04T02:09:08.947Z,3.67
2023-03-04T02:11:36.337Z,3.67
2023-03-04T02:14:03.158Z,3.27
2023-03-04T02:16:29.758Z,3.10
2023-03-04T02:18:56.288Z,3.70
2023-03-04T02:21:29.238Z,2.80
2023-03-04T02:24:03.154Z,3.47
2023-03-04T02:26:31.347Z,3.77
2023-03-04T02:28:59.462Z,3.70
2023-03-04T02:31:55.589Z,3.03
2023-03-04T02:34:26.070Z,3.00
2023-03-04T02:36:53.585Z,3.10
2023-03-04T02:39:20.025Z,3.03
2023-03-04T02:41:51.810Z,2.43
2023-03-04T02:44:24.107Z,3.27
2023-03-04T02:46:51.784Z,3.27
2023-03-04T02:49:18.584Z,2.80
2023-03-04T02:51:45.397Z,3.03
2023-03-04T02:54:16.823Z,3.17
2023-03-04T02:56:51.350Z,3.07
2023-03-04T02:59:18.620Z,2.73
2023-03-04T03:01:45.679Z,2.57
2023-03-04T03:04:12.981Z,2.23
2023-03-04T03:06:40.152Z,2.13
2023-03-04T03:09:07.524Z,2.80
2023-03-04T03:11:34.429Z,2.67
2023-03-04T03:14:00.974Z,2.47
2023-03-04T03:16:27.889Z,2.23
2023-03-04T03:18:54.489Z,2.83
2023-03-04T03:21:21.133Z,2.33
2023-03-04T03:23:47.701Z,3.40
2023-03-04T03:26:14.507Z,2.33
2023-03-04T03:28:41.034Z,2.47
2023-03-04T03:31:07.855Z,2.30
2023-03-04T03:33:34.597Z,2.63
2023-03-04T03:36:01.418Z,2.43
2023-03-04T03:38:28.262Z,2.17
2023-03-04T03:40:54.801Z,3.20
2023-03-04T03:43:21.323Z,2.13
2023-03-04T03:45:47.908Z,2.43
2023-03-04T03:48:14.403Z,2.27
2023-03-04T03:50:40.912Z,2.37
2023-03-04T03:53:07.472Z,2.30
2023-03-04T03:55:33.957Z,2.47
2023-03-04T03:58:00.559Z,2.27
2023-03-04T04:00:27.174Z,2.03
2023-03-04T04:02:55.239Z,1.90
2023-03-04T04:05:21.777Z,2.27
2023-03-04T04:07:48.323Z,2.00
2023-03-04T04:10:14.807Z,2.23
2023-03-04T04:12:41.385Z,2.00
2023-03-04T04:15:10.200Z,1.90
2023-03-04T04:17:36.734Z,2.20
2023-03-04T04:20:03.615Z,3.23
2023-03-04T04:22:30.071Z,2.13
2023-03-04T04:24:56.564Z,1.90
2023-03-04T04:27:23.189Z,2.03
2023-03-04T04:29:49.772Z,2.23
2023-03-04T04:32:16.364Z,2.63
2023-03-04T04:34:42.949Z,1.80
2023-03-04T04:37:09.522Z,2.20
2023-03-04T04:39:37.095Z,2.17
2023-03-04T04:42:03.794Z,2.20
2023-03-04T04:44:30.363Z,2.10
2023-03-04T04:46:56.982Z,2.00
2023-03-04T04:49:23.550Z,1.90
2023-03-04T04:51:50.174Z,2.00
2023-03-04T04:54:17.462Z,1.77
2023-03-04T04:56:44.053Z,2.00
2023-03-04T04:59:10.693Z,2.20
2023-03-04T05:01:37.233Z,2.10
2023-03-04T05:04:04.058Z,2.27
2023-03-04T05:06:30.642Z,1.80
2023-03-04T05:08:57.200Z,2.23
2023-03-04T05:11:23.801Z,1.87
2023-03-04T05:13:50.508Z,2.40
2023-03-04T05:16:17.904Z,1.73
2023-03-04T05:18:44.531Z,1.80
2023-03-04T05:21:11.193Z,2.20
2023-03-04T05:23:39.850Z,2.37
2023-03-04T05:26:08.118Z,1.80
2023-03-04T05:28:35.019Z,2.20
2023-03-04T05:31:02.013Z,1.70
2023-03-04T05:33:28.924Z,1.80
2023-03-04T05:35:56.456Z,1.97
2023-03-04T05:38:23.411Z,1.80
2023-03-04T05:40:50.417Z,2.20
2023-03-04T05:43:17.390Z,1.93
2023-03-04T05:45:43.938Z,2.20
2023-03-04T05:48:10.554Z,2.20
2023-03-04T05:50:37.312Z,1.80
2023-03-04T05:53:03.963Z,2.03
2023-03-04T05:55:30.553Z,1.90
2023-03-04T05:57:57.670Z,2.07
2023-03-04T06:00:25.135Z,1.77
2023-03-04T06:02:52.080Z,1.83
2023-03-04T06:05:19.583Z,1.77
2023-03-04T06:07:49.321Z,2.10
2023-03-04T06:10:17.492Z,1.73
2023-03-04T06:12:43.982Z,2.47
2023-03-04T06:15:11.214Z,2.30
2023-03-04T06:17:41.804Z,2.10
2023-03-04T06:20:10.880Z,2.00
2023-03-04T06:22:37.394Z,2.40
2023-03-04T06:25:04.715Z,1.87
2023-03-04T06:27:31.270Z,2.10
2023-03-04T06:29:58.005Z,2.00
2023-03-04T06:32:24.670Z,1.60
2023-03-04T06:34:51.287Z,2.20
2023-03-04T06:37:17.832Z,1.90
2023-03-04T06:39:45.885Z,1.93
2023-03-04T06:42:12.794Z,2.00
2023-03-04T06:44:39.421Z,1.90
2023-03-04T06:47:06.060Z,2.10
2023-03-04T06:49:32.651Z,2.13
2023-03-04T06:51:59.291Z,2.50
2023-03-04T06:54:25.944Z,2.37
2023-03-04T06:56:52.504Z,1.90
2023-03-04T06:59:19.175Z,2.33
2023-03-04T07:01:45.728Z,2.50
2023-03-04T07:04:13.850Z,2.10
2023-03-04T07:06:42.719Z,1.70
2023-03-04T07:09:10.269Z,1.70
2023-03-04T07:11:37.002Z,2.00
2023-03-04T07:14:03.525Z,2.30
2023-03-04T07:16:30.684Z,2.03
2023-03-04T07:18:57.347Z,1.67
2023-03-04T07:21:23.920Z,1.70
2023-03-04T07:23:50.785Z,1.90
2023-03-04T07:26:17.981Z,1.70
2023-03-04T07:28:44.644Z,2.10
2023-03-04T07:31:22.568Z,1.80
2023-03-04T07:33:49.770Z,1.90
2023-03-04T07:36:16.468Z,2.13
2023-03-04T07:38:45.018Z,1.73
2023-03-04T07:41:11.592Z,1.77
2023-03-04T07:43:38.395Z,2.20
2023-03-04T07:46:05.171Z,1.87
2023-03-04T07:48:31.707Z,1.80
2023-03-04T07:51:08.852Z,1.80
2023-03-04T07:53:37.266Z,1.60
2023-03-04T07:56:04.819Z,1.67
2023-03-04T07:58:31.692Z,1.70
2023-03-04T08:00:58.263Z,1.60
2023-03-04T08:03:24.930Z,1.50
2023-03-04T08:05:52.015Z,2.00
2023-03-04T08:08:18.623Z,1.30
2023-03-04T08:10:45.377Z,1.57
2023-03-04T08:13:11.980Z,1.53
2023-03-04T08:15:43.145Z,1.20
2023-03-04T08:18:09.976Z,1.17
2023-03-04T08:20:36.606Z,1.40
2023-03-04T08:23:03.167Z,1.20
2023-03-04T08:25:29.734Z,1.57
2023-03-04T08:27:56.389Z,1.50
2023-03-04T08:30:23.029Z,1.50
2023-03-04T08:32:49.634Z,1.50
2023-03-04T08:35:16.261Z,1.20
2023-03-04T08:37:46.408Z,1.87
2023-03-04T08:40:14.346Z,1.40
2023-03-04T08:42:41.856Z,1.67
2023-03-04T08:45:09.700Z,1.20
2023-03-04T08:47:36.460Z,1.20
2023-03-04T08:50:03.912Z,1.10
2023-03-04T08:52:30.976Z,1.60
2023-03-04T08:54:57.643Z,1.50
2023-03-04T08:57:24.195Z,1.37
2023-03-04T08:59:50.756Z,1.70
2023-03-04T09:02:17.473Z,1.90
2023-03-04T09:04:44.039Z,1.60
2023-03-04T09:07:11.270Z,1.63
2023-03-04T09:09:37.895Z,1.60
2023-03-04T09:12:04.567Z,1.37
2023-03-04T09:14:32.720Z,1.60
2023-03-04T09:16:59.363Z,1.33
2023-03-04T09:19:27.837Z,1.37
2023-03-04T09:21:56.046Z,1.53
2023-03-04T09:24:22.672Z,1.13
2023-03-04T09:26:54.312Z,1.20
2023-03-04T09:29:21.164Z,1.27
2023-03-04T09:31:47.819Z,1.30
2023-03-04T09:34:14.600Z,1.20
2023-03-04T09:36:41.191Z,1.10
2023-03-04T09:39:07.947Z,0.80
2023-03-04T09:41:39.542Z,1.20
2023-03-04T09:44:37.322Z,1.13
2023-03-04T09:47:07.871Z,0.90
2023-03-04T09:49:34.624Z,1.50
2023-03-04T09:52:20.802Z,1.40
2023-03-04T09:55:12.307Z,1.40
2023-03-04T09:57:50.987Z,2.30
2023-03-04T10:00:20.272Z,2.23
2023-03-04T10:03:09.989Z,1.47
2023-03-04T10:05:49.716Z,2.30
2023-03-04T10:08:41.220Z,1.40
2023-03-04T10:11:27.855Z,1.27
2023-03-04T10:14:12.520Z,0.93
2023-03-04T10:16:44.159Z,0.90
2023-03-04T10:19:13.726Z,0.50
2023-03-04T10:21:43.262Z,0.67
2023-03-04T10:24:17.999Z,0.40
2023-03-04T10:26:46.617Z,0.50
2023-03-04T10:29:18.467Z,0.60
2023-03-04T10:31:46.425Z,0.90
2023-03-04T10:34:14.156Z,1.50
2023-03-04T10:37:01.931Z,2.30
2023-03-04T10:39:33.637Z,2.80
2023-03-04T10:42:00.241Z,2.23
2023-03-04T10:44:27.999Z,2.07
2023-03-04T10:46:56.475Z,2.43
2023-03-04T10:49:25.141Z,1.80
2023-03-04T10:52:06.343Z,2.50
2023-03-04T10:54:50.435Z,1.80
2023-03-04T10:57:23.634Z,1.70
2023-03-04T10:59:55.676Z,1.70
2023-03-04T11:02:33.662Z,1.43
2023-03-04T11:05:13.820Z,1.53
2023-03-04T11:07:57.113Z,1.60
2023-03-04T11:10:23.999Z,1.63
2023-03-04T11:13:07.370Z,1.27
2023-03-04T11:15:49.476Z,1.57
2023-03-04T11:18:16.255Z,1.50
2023-03-04T11:20:49.416Z,1.57
2023-03-04T11:23:25.472Z,1.87
2023-03-04T11:26:10.575Z,1.60
2023-03-04T11:28:48.642Z,2.33
2023-03-04T11:31:22.876Z,1.67
2023-03-04T11:33:52.356Z,2.10
2023-03-04T11:36:43.854Z,2.00
2023-03-04T11:39:27.061Z,1.48
2023-03-04T11:41:59.398Z,1.73
2023-03-04T11:44:26.139Z,1.43
2023-03-04T11:47:05.444Z,1.63
2023-03-04T11:49:48.853Z,1.63
2023-03-04T11:52:18.636Z,2.33
2023-03-04T11:55:05.149Z,1.73
2023-03-04T11:57:49.320Z,2.23
2023-03-04T12:00:30.590Z,2.43
2023-03-04T12:03:12.927Z,2.17
2023-03-04T12:05:55.574Z,1.90
2023-03-04T12:08:38.778Z,2.63
2023-03-04T12:11:14.885Z,1.33
2023-03-04T12:14:04.638Z,0.93
2023-03-04T12:16:34.225Z,1.40
2023-03-04T12:19:17.283Z,1.40
2023-03-04T12:22:06.557Z,1.77
2023-03-04T12:24:49.450Z,1.53
2023-03-04T12:27:37.255Z,1.40
2023-03-04T12:30:28.591Z,1.58
2023-03-04T12:33:19.249Z,1.73
2023-03-04T12:36:07.249Z,1.50
2023-03-04T12:38:50.146Z,1.30
2023-03-04T12:41:28.877Z,1.50
2023-03-04T12:44:09.223Z,2.13
2023-03-04T12:46:59.468Z,1.47
2023-03-04T12:49:49.270Z,1.67
2023-03-04T12:55:44.578Z,1.60
2023-03-04T12:58:16.092Z,1.07
2023-03-04T13:01:07.354Z,1.57
2023-03-04T13:03:39.215Z,1.40
2023-03-04T13:06:19.493Z,2.30
2023-03-04T13:09:04.685Z,1.83
2023-03-04T13:11:42.771Z,2.90
2023-03-04T13:14:17.423Z,2.60
2023-03-04T13:16:48.039Z,1.67
2023-03-04T13:19:42.280Z,1.53
2023-03-04T13:22:53.855Z,1.20
2023-03-04T13:25:32.659Z,1.50
2023-03-04T13:28:11.441Z,1.33
2023-03-04T13:30:41.045Z,1.47
2023-03-04T13:33:10.484Z,1.43
2023-03-04T13:35:49.254Z,1.37
2023-03-04T13:38:37.410Z,1.70
2023-03-04T13:41:23.022Z,1.23
2023-03-04T13:43:52.120Z,1.10
2023-03-04T13:46:18.765Z,1.60
2023-03-04T13:48:51.576Z,1.60
2023-03-04T13:51:29.964Z,1.10
2023-03-04T13:53:59.731Z,1.33
2023-03-04T13:56:37.905Z,1.40
2023-03-04T13:59:43.439Z,1.55
2023-03-04T14:02:22.276Z,1.40
2023-03-04T14:04:54.965Z,1.47
2023-03-04T14:07:26.577Z,1.48
2023-03-04T14:09:57.276Z,1.50
2023-03-04T14:12:24.427Z,1.60
2023-03-04T14:14:54.491Z,1.77
2023-03-04T14:17:27.419Z,1.67
2023-03-04T14:19:54.813Z,1.60
2023-03-04T14:22:40.897Z,1.87
2023-03-04T14:25:16.291Z,1.30
2023-03-04T14:27:44.456Z,1.97
2023-03-04T14:30:40.696Z,1.53
2023-03-04T14:33:21.685Z,1.70
2023-03-04T14:35:52.329Z,2.07
2023-03-04T14:38:28.220Z,1.77
2023-03-04T14:41:07.910Z,1.93
2023-03-04T14:43:57.189Z,2.03
2023-03-04T14:46:25.073Z,1.80
2023-03-04T14:48:53.516Z,1.93
2023-03-04T14:51:39.145Z,1.73
2023-03-04T14:54:06.824Z,2.28
2023-03-04T14:56:37.191Z,1.50
2023-03-04T14:59:03.976Z,1.37
2023-03-04T15:01:35.944Z,1.60
2023-03-04T15:04:08.332Z,1.40
2023-03-04T15:06:47.763Z,1.57
2023-03-04T15:09:22.009Z,1.67
2023-03-04T15:11:53.793Z,1.70
2023-03-04T15:14:42.679Z,1.80
2023-03-04T15:17:26.057Z,1.87
2023-03-04T15:20:07.887Z,2.50
2023-03-04T15:22:57.710Z,1.77
2023-03-04T15:25:24.432Z,2.37
2023-03-04T15:27:51.469Z,2.70
2023-03-04T15:30:25.963Z,2.70
2023-03-04T15:32:52.452Z,2.63
2023-03-04T15:35:19.754Z,2.73
2023-03-04T15:37:47.519Z,2.37
2023-03-04T15:40:23.659Z,2.00
2023-03-04T15:42:50.458Z,2.50
2023-03-04T15:45:26.773Z,2.73
2023-03-04T15:47:53.458Z,2.90
2023-03-04T15:50:21.798Z,2.03
2023-03-04T15:52:50.879Z,2.17
2023-03-04T15:55:20.045Z,2.83
2023-03-04T15:57:48.965Z,3.03
2023-03-04T16:00:16.117Z,2.03
2023-03-04T16:02:43.008Z,2.33
2023-03-04T16:05:10.891Z,1.93
2023-03-04T16:07:38.843Z,2.17
2023-03-04T16:10:08.688Z,1.67
2023-03-04T16:12:35.394Z,1.90
2023-03-04T16:15:02.186Z,3.00
2023-03-04T16:17:28.853Z,2.80
2023-03-04T16:19:55.508Z,2.30
2023-03-04T16:22:24.356Z,2.50
2023-03-04T16:24:51.640Z,1.93
2023-03-04T16:27:19.195Z,2.50
2023-03-04T16:29:46.030Z,2.40
2023-03-04T16:32:12.970Z,2.43
2023-03-04T16:34:39.582Z,2.37
2023-03-04T16:37:12.318Z,2.17
2023-03-04T16:39:38.998Z,1.77
2023-03-04T16:42:13.205Z,2.40
2023-03-04T16:44:39.939Z,2.10
2023-03-04T16:47:08.033Z,2.67
2023-03-04T16:49:34.855Z,2.80
2023-03-04T16:52:01.453Z,2.23
2023-03-04T16:54:31.277Z,2.33
2023-03-04T16:56:59.266Z,2.07
2023-03-04T16:59:26.294Z,2.07
2023-03-04T17:01:53.778Z,2.33
2023-03-04T17:04:20.722Z,2.50
2023-03-04T17:06:47.502Z,2.43
2023-03-04T17:09:14.391Z,2.47
2023-03-04T17:11:41.268Z,2.00
2023-03-04T17:14:07.791Z,2.53
2023-03-04T17:16:34.460Z,2.30
2023-03-04T17:19:01.101Z,1.67
2023-03-04T17:21:28.936Z,2.40
2023-03-04T17:23:55.459Z,2.40
2023-03-04T17:26:22.836Z,2.33
2023-03-04T17:28:50.652Z,2.23
2023-03-04T17:31:19.065Z,2.20
2023-03-04T17:33:46.237Z,3.03
2023-03-04T17:36:14.618Z,2.53
2023-03-04T17:38:41.758Z,1.93
2023-03-04T17:41:13.454Z,2.77
2023-03-04T17:43:40.219Z,2.30
2023-03-04T17:46:08.895Z,2.70
2023-03-04T17:48:35.497Z,1.97
2023-03-04T17:51:02.779Z,2.43
2023-03-04T17:53:29.669Z,2.17
2023-03-04T17:56:00.144Z,2.20
2023-03-04T17:58:28.095Z,2.60
2023-03-04T18:01:04.776Z,2.33
2023-03-04T18:03:31.384Z,4.30
2023-03-04T18:05:58.582Z,3.63
2023-03-04T18:08:25.534Z,1.90
2023-03-04T18:10:52.596Z,1.80
2023-03-04T18:13:19.279Z,3.00
2023-03-04T18:15:47.977Z,2.50
2023-03-04T18:19:06.258Z,2.47
2023-03-04T18:21:42.976Z,2.17
2023-03-04T18:28:20.835Z,2.10
2023-03-04T18:35:07.320Z,2.10
2023-03-04T18:37:56.930Z,1.83
2023-03-04T18:44:10.658Z,3.67
2023-03-04T18:46:48.227Z,1.93
2023-03-04T18:49:15.188Z,2.03
2023-03-04T18:51:42.022Z,2.03
2023-03-04T18:54:08.461Z,1.90
2023-03-04T18:56:38.986Z,2.20
2023-03-04T18:59:08.253Z,1.80
2023-03-04T19:01:34.796Z,1.97
2023-03-04T19:04:04.422Z,1.73
2023-03-04T19:06:34.491Z,1.80
2023-03-04T19:09:01.298Z,2.17
2023-03-04T19:11:29.814Z,2.53
2023-03-04T19:13:56.258Z,2.03
2023-03-04T19:16:22.906Z,1.80
2023-03-04T19:18:49.384Z,2.00
2023-03-04T19:21:15.833Z,2.00
2023-03-04T19:23:42.379Z,1.70
2023-03-04T19:26:09.130Z,2.03
2023-03-04T19:28:35.702Z,2.07
2023-03-04T19:31:07.052Z,2.20
2023-03-04T19:33:37.229Z,1.27
2023-03-04T19:36:05.645Z,1.93
2023-03-04T19:38:33.497Z,1.93
2023-03-04T19:41:00.130Z,1.93
2023-03-04T19:43:26.549Z,1.77
2023-03-04T19:45:55.057Z,1.77
2023-03-04T19:48:22.676Z,2.00
2023-03-04T19:50:50.008Z,2.10
2023-03-04T19:53:18.631Z,1.93
2023-03-04T19:55:49.252Z,2.80
2023-03-04T19:58:16.466Z,1.93
2023-03-04T20:00:42.976Z,1.90
2023-03-04T20:03:09.511Z,2.30
2023-03-04T20:05:36.089Z,1.73
2023-03-04T20:08:02.686Z,2.07
2023-03-04T20:10:33.502Z,1.57
2023-03-04T20:12:59.974Z,1.80
2023-03-04T20:15:26.436Z,1.70
2023-03-04T20:17:52.886Z,1.60
2023-03-04T20:20:19.372Z,1.47
2023-03-04T20:22:45.885Z,2.00
2023-03-04T20:25:13.811Z,1.60
2023-03-04T20:27:40.255Z,2.20
2023-03-04T20:30:07.248Z,1.60
2023-03-04T20:32:33.735Z,2.17
2023-03-04T20:35:00.185Z,1.87
2023-03-04T20:37:26.609Z,1.80
2023-03-04T20:39:53.104Z,2.03
2023-03-04T20:42:19.560Z,1.93
2023-03-04T20:44:46.030Z,1.67
2023-03-04T20:47:12.465Z,1.97
2023-03-04T20:49:38.892Z,2.00
2023-03-04T20:52:09.595Z,1.80
2023-03-04T20:54:37.396Z,1.77
2023-03-04T20:57:06.801Z,2.20
2023-03-04T20:59:37.966Z,2.03
2023-03-04T21:02:05.980Z,2.03
2023-03-04T21:04:34.311Z,1.80
2023-03-04T21:07:01.665Z,1.97
2023-03-04T21:09:28.143Z,1.70
2023-03-04T21:11:54.847Z,1.90
2023-03-04T21:14:24.274Z,1.77
2023-03-04T21:16:53.352Z,1.63
2023-03-04T21:19:22.642Z,2.00
2023-03-04T21:21:50.867Z,2.17
2023-03-04T21:24:19.871Z,1.97
2023-03-04T21:26:47.651Z,1.37
2023-03-04T21:29:16.216Z,2.30
2023-03-04T21:31:45.333Z,2.03
2023-03-04T21:34:18.249Z,2.47
2023-03-04T21:36:44.870Z,1.80
2023-03-04T21:39:16.668Z,1.80
2023-03-04T21:41:43.392Z,1.70
2023-03-04T21:44:17.977Z,1.83
2023-03-04T21:46:59.083Z,1.37
2023-03-04T21:49:26.248Z,1.60
2023-03-04T21:51:52.672Z,1.50
2023-03-04T21:54:19.144Z,2.13
2023-03-04T21:56:45.630Z,2.17
2023-03-04T21:59:13.717Z,1.73
2023-03-04T22:01:40.828Z,1.70
2023-03-04T22:04:07.364Z,2.03
2023-03-04T22:06:34.398Z,1.40
2023-03-04T22:09:02.133Z,1.40
2023-03-04T22:11:29.974Z,1.30
2023-03-04T22:13:58.209Z,1.13
2023-03-04T22:16:25.255Z,1.57
2023-03-04T22:18:51.761Z,1.47
2023-03-04T22:21:19.500Z,1.27
2023-03-04T22:23:46.121Z,1.47
2023-03-04T22:26:18.502Z,1.57
2023-03-04T22:28:44.948Z,1.30
2023-03-04T22:31:30.070Z,1.50
2023-03-04T22:34:01.474Z,1.40
2023-03-04T22:36:32.699Z,1.43
2023-03-04T22:38:59.140Z,1.03
2023-03-04T22:41:25.770Z,1.33
2023-03-04T22:43:52.402Z,1.73
2023-03-04T22:46:24.654Z,1.63
2023-03-04T22:48:52.794Z,1.57
2023-03-04T22:51:20.670Z,1.23
2023-03-04T22:53:48.349Z,1.40
2023-03-04T22:56:15.569Z,1.50
2023-03-04T22:58:42.918Z,1.10
2023-03-04T23:01:10.207Z,1.13
2023-03-04T23:03:37.035Z,0.97
2023-03-04T23:06:14.094Z,1.20
2023-03-04T23:08:41.900Z,1.30
2023-03-04T23:11:10.284Z,1.60
2023-03-04T23:13:37.741Z,1.10
2023-03-04T23:16:07.898Z,1.23
2023-03-04T23:18:35.037Z,1.60
2023-03-04T23:21:25.718Z,0.83
2023-03-04T23:23:52.370Z,1.00
2023-03-04T23:26:27.275Z,1.40
2023-03-04T23:28:56.785Z,1.00
2023-03-04T23:31:23.552Z,1.27
2023-03-04T23:33:50.130Z,1.07
2023-03-04T23:36:18.265Z,1.30
2023-03-04T23:38:46.676Z,0.93
2023-03-04T23:41:15.578Z,1.30
2023-03-04T23:43:42.041Z,1.33
2023-03-04T23:46:09.317Z,0.80
2023-03-04T23:48:35.824Z,1.00
2023-03-04T23:51:02.234Z,0.90
2023-03-04T23:53:28.718Z,0.97
2023-03-04T23:55:55.124Z,0.80
2023-03-04T23:58:21.536Z,0.87
